sensor_id;sensor_type;location;lat;lon;timestamp;P1;durP1;ratioP1;P2;durP2;ratioP2
29728;SDS011;20055;51.498;11.960;2022-11-06T00:01:33;19.48;;;7.95;;
29728;SDS011;20055;51.498;11.960;2022-11-06T00:03:59;18.65;;;8.77;;
29728;SDS011;20055;51.498;11.960;2022-11-06T00:06:26;24.25;;;10.82;;
29728;SDS011;20055;51.498;11.960;2022-11-06T00:09:11;18.30;;;10.10;;
29728;SDS011;20055;51.498;11.960;2022-11-06T00:11:39;22.80;;;11.77;;
29728;SDS011;20055;51.498;11.960;2022-11-06T00:14:06;31.50;;;12.38;;
29728;SDS011;20055;51.498;11.960;2022-11-06T00:16:33;32.63;;;13.90;;
29728;SDS011;20055;51.498;11.960;2022-11-06T00:19:01;26.88;;;15.00;;
29728;SDS011;20055;51.498;11.960;2022-11-06T00:21:29;33.35;;;15.10;;
29728;SDS011;20055;51.498;11.960;2022-11-06T00:23:57;30.17;;;15.35;;
29728;SDS011;20055;51.498;11.960;2022-11-06T00:26:25;38.05;;;16.33;;
29728;SDS011;20055;51.498;11.960;2022-11-06T00:28:52;37.88;;;14.98;;
29728;SDS011;20055;51.498;11.960;2022-11-06T00:31:20;35.45;;;15.55;;
29728;SDS011;20055;51.498;11.960;2022-11-06T00:33:48;34.70;;;13.63;;
29728;SDS011;20055;51.498;11.960;2022-11-06T00:36:16;33.85;;;13.20;;
29728;SDS011;20055;51.498;11.960;2022-11-06T00:38:44;39.03;;;14.13;;
29728;SDS011;20055;51.498;11.960;2022-11-06T00:41:11;35.58;;;12.00;;
29728;SDS011;20055;51.498;11.960;2022-11-06T00:43:40;27.40;;;11.90;;
29728;SDS011;20055;51.498;11.960;2022-11-06T00:46:10;28.88;;;11.45;;
29728;SDS011;20055;51.498;11.960;2022-11-06T00:48:38;31.65;;;12.60;;
29728;SDS011;20055;51.498;11.960;2022-11-06T00:51:06;27.05;;;11.15;;
29728;SDS011;20055;51.498;11.960;2022-11-06T00:53:32;21.63;;;10.25;;
29728;SDS011;20055;51.498;11.960;2022-11-06T00:56:05;23.33;;;10.02;;
29728;SDS011;20055;51.498;11.960;2022-11-06T00:58:37;21.33;;;9.68;;
29728;SDS011;20055;51.498;11.960;2022-11-06T01:01:05;27.55;;;10.98;;
29728;SDS011;20055;51.498;11.960;2022-11-06T01:03:51;17.52;;;9.70;;
29728;SDS011;20055;51.498;11.960;2022-11-06T01:06:22;22.75;;;9.20;;
29728;SDS011;20055;51.498;11.960;2022-11-06T01:08:49;21.95;;;9.75;;
29728;SDS011;20055;51.498;11.960;2022-11-06T01:11:17;25.33;;;10.05;;
29728;SDS011;20055;51.498;11.960;2022-11-06T01:13:47;15.25;;;7.63;;
29728;SDS011;20055;51.498;11.960;2022-11-06T01:16:15;28.50;;;9.18;;
29728;SDS011;20055;51.498;11.960;2022-11-06T01:18:42;18.80;;;8.10;;
29728;SDS011;20055;51.498;11.960;2022-11-06T01:21:13;16.75;;;8.82;;
29728;SDS011;20055;51.498;11.960;2022-11-06T01:23:42;16.42;;;7.95;;
29728;SDS011;20055;51.498;11.960;2022-11-06T01:26:10;22.40;;;8.23;;
29728;SDS011;20055;51.498;11.960;2022-11-06T01:28:37;19.90;;;8.52;;
29728;SDS011;20055;51.498;11.960;2022-11-06T01:31:09;17.80;;;7.13;;
29728;SDS011;20055;51.498;11.960;2022-11-06T01:33:39;17.02;;;7.63;;
29728;SDS011;20055;51.498;11.960;2022-11-06T01:36:10;22.73;;;8.93;;
29728;SDS011;20055;51.498;11.960;2022-11-06T01:38:40;16.10;;;7.00;;
29728;SDS011;20055;51.498;11.960;2022-11-06T01:41:10;16.95;;;7.95;;
29728;SDS011;20055;51.498;11.960;2022-11-06T01:43:55;16.75;;;7.45;;
29728;SDS011;20055;51.498;11.960;2022-11-06T01:46:24;15.65;;;7.15;;
29728;SDS011;20055;51.498;11.960;2022-11-06T01:48:57;17.85;;;8.18;;
29728;SDS011;20055;51.498;11.960;2022-11-06T01:51:31;22.08;;;7.82;;
29728;SDS011;20055;51.498;11.960;2022-11-06T01:54:02;19.10;;;8.80;;
29728;SDS011;20055;51.498;11.960;2022-11-06T01:56:30;22.00;;;8.48;;
29728;SDS011;20055;51.498;11.960;2022-11-06T01:58:57;15.57;;;8.15;;
29728;SDS011;20055;51.498;11.960;2022-11-06T02:01:23;17.65;;;8.20;;
29728;SDS011;20055;51.498;11.960;2022-11-06T02:06:49;15.65;;;7.53;;
29728;SDS011;20055;51.498;11.960;2022-11-06T02:09:15;18.27;;;8.13;;
29728;SDS011;20055;51.498;11.960;2022-11-06T02:11:45;16.08;;;8.00;;
29728;SDS011;20055;51.498;11.960;2022-11-06T02:14:33;19.85;;;8.52;;
29728;SDS011;20055;51.498;11.960;2022-11-06T02:17:19;14.52;;;7.72;;
29728;SDS011;20055;51.498;11.960;2022-11-06T02:20:04;13.70;;;7.15;;
29728;SDS011;20055;51.498;11.960;2022-11-06T02:22:55;16.20;;;9.05;;
29728;SDS011;20055;51.498;11.960;2022-11-06T02:28:03;17.10;;;8.60;;
29728;SDS011;20055;51.498;11.960;2022-11-06T02:30:43;13.55;;;7.50;;
29728;SDS011;20055;51.498;11.960;2022-11-06T02:33:13;17.58;;;9.35;;
29728;SDS011;20055;51.498;11.960;2022-11-06T02:35:44;16.60;;;8.68;;
29728;SDS011;20055;51.498;11.960;2022-11-06T02:38:22;17.90;;;7.75;;
29728;SDS011;20055;51.498;11.960;2022-11-06T02:41:03;21.98;;;7.60;;
29728;SDS011;20055;51.498;11.960;2022-11-06T02:43:37;20.35;;;6.80;;
29728;SDS011;20055;51.498;11.960;2022-11-06T02:48:46;14.38;;;7.78;;
29728;SDS011;20055;51.498;11.960;2022-11-06T02:51:17;20.13;;;7.15;;
29728;SDS011;20055;51.498;11.960;2022-11-06T02:53:47;18.98;;;7.40;;
29728;SDS011;20055;51.498;11.960;2022-11-06T02:56:15;11.57;;;6.60;;
29728;SDS011;20055;51.498;11.960;2022-11-06T02:58:47;18.50;;;8.05;;
29728;SDS011;20055;51.498;11.960;2022-11-06T03:04:10;10.00;;;6.53;;
29728;SDS011;20055;51.498;11.960;2022-11-06T03:06:42;13.45;;;7.05;;
29728;SDS011;20055;51.498;11.960;2022-11-06T03:09:14;20.45;;;7.68;;
29728;SDS011;20055;51.498;11.960;2022-11-06T03:11:49;16.02;;;7.57;;
29728;SDS011;20055;51.498;11.960;2022-11-06T03:14:26;12.63;;;7.07;;
29728;SDS011;20055;51.498;11.960;2022-11-06T03:19:36;11.40;;;6.57;;
29728;SDS011;20055;51.498;11.960;2022-11-06T03:27:39;11.85;;;6.70;;
29728;SDS011;20055;51.498;11.960;2022-11-06T03:30:13;16.85;;;7.03;;
29728;SDS011;20055;51.498;11.960;2022-11-06T03:32:46;22.88;;;6.88;;
29728;SDS011;20055;51.498;11.960;2022-11-06T03:35:18;16.75;;;7.28;;
29728;SDS011;20055;51.498;11.960;2022-11-06T03:40:44;17.65;;;7.32;;
29728;SDS011;20055;51.498;11.960;2022-11-06T03:43:14;16.30;;;7.88;;
29728;SDS011;20055;51.498;11.960;2022-11-06T03:48:15;14.20;;;6.63;;
29728;SDS011;20055;51.498;11.960;2022-11-06T03:53:44;12.48;;;5.93;;
29728;SDS011;20055;51.498;11.960;2022-11-06T03:56:23;19.27;;;7.03;;
29728;SDS011;20055;51.498;11.960;2022-11-06T03:58:57;13.13;;;6.75;;
29728;SDS011;20055;51.498;11.960;2022-11-06T04:01:28;22.15;;;7.80;;
29728;SDS011;20055;51.498;11.960;2022-11-06T04:04:01;14.18;;;7.25;;
29728;SDS011;20055;51.498;11.960;2022-11-06T04:06:55;19.80;;;7.75;;
29728;SDS011;20055;51.498;11.960;2022-11-06T04:09:21;13.77;;;7.40;;
29728;SDS011;20055;51.498;11.960;2022-11-06T04:12:09;12.82;;;7.18;;
29728;SDS011;20055;51.498;11.960;2022-11-06T04:14:57;18.42;;;7.57;;
29728;SDS011;20055;51.498;11.960;2022-11-06T04:17:25;15.00;;;7.47;;
29728;SDS011;20055;51.498;11.960;2022-11-06T04:19:54;13.00;;;7.22;;
29728;SDS011;20055;51.498;11.960;2022-11-06T04:33:44;18.02;;;8.30;;
29728;SDS011;20055;51.498;11.960;2022-11-06T04:39:08;19.20;;;8.55;;
29728;SDS011;20055;51.498;11.960;2022-11-06T04:41:51;14.48;;;7.53;;
29728;SDS011;20055;51.498;11.960;2022-11-06T04:44:27;16.70;;;8.25;;
29728;SDS011;20055;51.498;11.960;2022-11-06T04:47:01;22.25;;;8.18;;
29728;SDS011;20055;51.498;11.960;2022-11-06T04:49:31;21.30;;;9.32;;
29728;SDS011;20055;51.498;11.960;2022-11-06T04:52:01;17.67;;;8.48;;
29728;SDS011;20055;51.498;11.960;2022-11-06T04:54:30;19.67;;;8.23;;
29728;SDS011;20055;51.498;11.960;2022-11-06T04:56:57;18.00;;;8.82;;
29728;SDS011;20055;51.498;11.960;2022-11-06T04:59:25;16.67;;;8.68;;
29728;SDS011;20055;51.498;11.960;2022-11-06T05:01:52;20.63;;;9.13;;
29728;SDS011;20055;51.498;11.960;2022-11-06T05:04:18;14.60;;;9.00;;
29728;SDS011;20055;51.498;11.960;2022-11-06T05:06:44;15.25;;;8.50;;
29728;SDS011;20055;51.498;11.960;2022-11-06T05:09:11;19.30;;;8.50;;
29728;SDS011;20055;51.498;11.960;2022-11-06T05:11:37;21.08;;;9.20;;
29728;SDS011;20055;51.498;11.960;2022-11-06T05:14:03;22.80;;;9.52;;
29728;SDS011;20055;51.498;11.960;2022-11-06T05:16:30;17.38;;;8.65;;
29728;SDS011;20055;51.498;11.960;2022-11-06T05:18:56;24.73;;;9.98;;
29728;SDS011;20055;51.498;11.960;2022-11-06T05:21:22;18.15;;;9.02;;
29728;SDS011;20055;51.498;11.960;2022-11-06T05:24:08;17.90;;;8.57;;
29728;SDS011;20055;51.498;11.960;2022-11-06T05:26:34;18.08;;;8.48;;
29728;SDS011;20055;51.498;11.960;2022-11-06T05:29:01;15.38;;;8.38;;
29728;SDS011;20055;51.498;11.960;2022-11-06T05:31:27;18.85;;;8.65;;
29728;SDS011;20055;51.498;11.960;2022-11-06T05:33:54;18.38;;;9.98;;
29728;SDS011;20055;51.498;11.960;2022-11-06T05:36:20;23.48;;;8.70;;
29728;SDS011;20055;51.498;11.960;2022-11-06T05:38:46;22.20;;;9.82;;
29728;SDS011;20055;51.498;11.960;2022-11-06T05:41:13;15.93;;;8.43;;
29728;SDS011;20055;51.498;11.960;2022-11-06T05:43:40;19.77;;;8.75;;
29728;SDS011;20055;51.498;11.960;2022-11-06T05:46:06;19.10;;;9.63;;
29728;SDS011;20055;51.498;11.960;2022-11-06T05:48:32;19.48;;;9.00;;
29728;SDS011;20055;51.498;11.960;2022-11-06T05:51:00;23.55;;;8.68;;
29728;SDS011;20055;51.498;11.960;2022-11-06T05:53:30;18.58;;;9.05;;
29728;SDS011;20055;51.498;11.960;2022-11-06T05:55:59;17.08;;;9.68;;
29728;SDS011;20055;51.498;11.960;2022-11-06T05:58:26;16.25;;;9.32;;
29728;SDS011;20055;51.498;11.960;2022-11-06T06:00:53;18.58;;;8.95;;
29728;SDS011;20055;51.498;11.960;2022-11-06T06:03:19;25.63;;;9.52;;
29728;SDS011;20055;51.498;11.960;2022-11-06T06:05:46;19.83;;;8.70;;
29728;SDS011;20055;51.498;11.960;2022-11-06T06:08:13;17.25;;;9.35;;
29728;SDS011;20055;51.498;11.960;2022-11-06T06:10:40;20.50;;;9.95;;
29728;SDS011;20055;51.498;11.960;2022-11-06T06:13:09;20.40;;;10.73;;
29728;SDS011;20055;51.498;11.960;2022-11-06T06:15:36;15.25;;;9.07;;
29728;SDS011;20055;51.498;11.960;2022-11-06T06:18:03;21.42;;;10.15;;
29728;SDS011;20055;51.498;11.960;2022-11-06T06:20:29;20.92;;;9.27;;
29728;SDS011;20055;51.498;11.960;2022-11-06T06:22:56;26.00;;;10.65;;
29728;SDS011;20055;51.498;11.960;2022-11-06T06:25:23;15.95;;;9.25;;
29728;SDS011;20055;51.498;11.960;2022-11-06T06:27:51;17.77;;;10.10;;
29728;SDS011;20055;51.498;11.960;2022-11-06T06:30:17;27.75;;;11.00;;
29728;SDS011;20055;51.498;11.960;2022-11-06T06:32:44;15.85;;;8.90;;
29728;SDS011;20055;51.498;11.960;2022-11-06T06:35:11;17.88;;;9.77;;
29728;SDS011;20055;51.498;11.960;2022-11-06T06:37:37;18.88;;;10.15;;
29728;SDS011;20055;51.498;11.960;2022-11-06T06:40:04;17.00;;;9.57;;
29728;SDS011;20055;51.498;11.960;2022-11-06T06:42:31;20.45;;;8.80;;
29728;SDS011;20055;51.498;11.960;2022-11-06T06:44:57;22.08;;;10.00;;
29728;SDS011;20055;51.498;11.960;2022-11-06T06:47:24;16.95;;;9.07;;
29728;SDS011;20055;51.498;11.960;2022-11-06T06:49:50;18.25;;;9.27;;
29728;SDS011;20055;51.498;11.960;2022-11-06T06:52:16;16.83;;;9.45;;
29728;SDS011;20055;51.498;11.960;2022-11-06T06:54:42;15.70;;;9.55;;
29728;SDS011;20055;51.498;11.960;2022-11-06T06:57:09;14.45;;;8.40;;
29728;SDS011;20055;51.498;11.960;2022-11-06T06:59:36;13.48;;;8.70;;
29728;SDS011;20055;51.498;11.960;2022-11-06T07:02:02;17.55;;;9.35;;
29728;SDS011;20055;51.498;11.960;2022-11-06T07:04:29;20.13;;;8.85;;
29728;SDS011;20055;51.498;11.960;2022-11-06T07:06:55;15.98;;;9.70;;
29728;SDS011;20055;51.498;11.960;2022-11-06T07:09:21;21.80;;;8.88;;
29728;SDS011;20055;51.498;11.960;2022-11-06T07:11:50;18.38;;;9.52;;
29728;SDS011;20055;51.498;11.960;2022-11-06T07:14:17;23.83;;;9.70;;
29728;SDS011;20055;51.498;11.960;2022-11-06T07:16:43;20.30;;;9.82;;
29728;SDS011;20055;51.498;11.960;2022-11-06T07:19:09;18.75;;;8.73;;
29728;SDS011;20055;51.498;11.960;2022-11-06T07:21:36;19.23;;;9.20;;
29728;SDS011;20055;51.498;11.960;2022-11-06T07:24:03;15.95;;;9.32;;
29728;SDS011;20055;51.498;11.960;2022-11-06T07:26:29;22.65;;;10.98;;
29728;SDS011;20055;51.498;11.960;2022-11-06T07:28:55;21.65;;;10.27;;
29728;SDS011;20055;51.498;11.960;2022-11-06T07:31:22;22.70;;;9.88;;
29728;SDS011;20055;51.498;11.960;2022-11-06T07:33:48;14.48;;;9.23;;
29728;SDS011;20055;51.498;11.960;2022-11-06T07:36:15;16.65;;;9.52;;
29728;SDS011;20055;51.498;11.960;2022-11-06T07:38:41;25.23;;;9.20;;
29728;SDS011;20055;51.498;11.960;2022-11-06T07:41:09;25.52;;;9.70;;
29728;SDS011;20055;51.498;11.960;2022-11-06T07:43:37;17.73;;;9.65;;
29728;SDS011;20055;51.498;11.960;2022-11-06T07:46:04;21.20;;;9.30;;
29728;SDS011;20055;51.498;11.960;2022-11-06T07:48:33;27.33;;;9.93;;
29728;SDS011;20055;51.498;11.960;2022-11-06T07:51:03;19.65;;;10.02;;
29728;SDS011;20055;51.498;11.960;2022-11-06T07:53:31;20.13;;;9.80;;
29728;SDS011;20055;51.498;11.960;2022-11-06T07:55:58;20.40;;;11.02;;
29728;SDS011;20055;51.498;11.960;2022-11-06T07:58:25;21.58;;;9.35;;
29728;SDS011;20055;51.498;11.960;2022-11-06T08:00:52;25.55;;;11.27;;
29728;SDS011;20055;51.498;11.960;2022-11-06T08:03:20;21.85;;;9.90;;
29728;SDS011;20055;51.498;11.960;2022-11-06T08:05:47;23.80;;;9.45;;
29728;SDS011;20055;51.498;11.960;2022-11-06T08:08:15;16.65;;;10.15;;
29728;SDS011;20055;51.498;11.960;2022-11-06T08:10:42;19.15;;;8.43;;
29728;SDS011;20055;51.498;11.960;2022-11-06T08:13:08;15.05;;;9.23;;
29728;SDS011;20055;51.498;11.960;2022-11-06T08:15:36;16.00;;;9.07;;
29728;SDS011;20055;51.498;11.960;2022-11-06T08:18:04;21.77;;;9.63;;
29728;SDS011;20055;51.498;11.960;2022-11-06T08:23:01;22.77;;;10.10;;
29728;SDS011;20055;51.498;11.960;2022-11-06T08:25:28;20.58;;;9.43;;
29728;SDS011;20055;51.498;11.960;2022-11-06T08:27:56;19.50;;;9.05;;
29728;SDS011;20055;51.498;11.960;2022-11-06T08:30:23;16.42;;;9.15;;
29728;SDS011;20055;51.498;11.960;2022-11-06T08:32:50;14.88;;;9.40;;
29728;SDS011;20055;51.498;11.960;2022-11-06T08:35:16;18.58;;;9.68;;
29728;SDS011;20055;51.498;11.960;2022-11-06T08:37:43;14.65;;;8.25;;
29728;SDS011;20055;51.498;11.960;2022-11-06T08:40:10;19.60;;;7.82;;
29728;SDS011;20055;51.498;11.960;2022-11-06T08:42:36;15.40;;;8.43;;
29728;SDS011;20055;51.498;11.960;2022-11-06T08:45:03;16.45;;;8.57;;
29728;SDS011;20055;51.498;11.960;2022-11-06T08:47:30;15.77;;;8.27;;
29728;SDS011;20055;51.498;11.960;2022-11-06T08:49:56;18.33;;;9.18;;
29728;SDS011;20055;51.498;11.960;2022-11-06T08:52:23;17.20;;;7.72;;
29728;SDS011;20055;51.498;11.960;2022-11-06T08:54:50;14.57;;;8.48;;
29728;SDS011;20055;51.498;11.960;2022-11-06T08:57:16;17.20;;;7.63;;
29728;SDS011;20055;51.498;11.960;2022-11-06T08:59:42;23.23;;;7.60;;
29728;SDS011;20055;51.498;11.960;2022-11-06T09:02:12;16.17;;;7.32;;
29728;SDS011;20055;51.498;11.960;2022-11-06T09:04:39;15.57;;;7.47;;
29728;SDS011;20055;51.498;11.960;2022-11-06T09:07:06;19.25;;;7.15;;
29728;SDS011;20055;51.498;11.960;2022-11-06T09:09:32;14.52;;;7.07;;
29728;SDS011;20055;51.498;11.960;2022-11-06T09:11:58;18.30;;;6.72;;
29728;SDS011;20055;51.498;11.960;2022-11-06T09:14:26;14.23;;;7.00;;
29728;SDS011;20055;51.498;11.960;2022-11-06T09:16:53;12.32;;;7.05;;
29728;SDS011;20055;51.498;11.960;2022-11-06T09:19:19;20.08;;;6.22;;
29728;SDS011;20055;51.498;11.960;2022-11-06T09:21:45;8.88;;;6.00;;
29728;SDS011;20055;51.498;11.960;2022-11-06T09:24:12;18.83;;;7.82;;
29728;SDS011;20055;51.498;11.960;2022-11-06T09:26:39;13.90;;;5.82;;
29728;SDS011;20055;51.498;11.960;2022-11-06T09:29:05;10.75;;;5.57;;
29728;SDS011;20055;51.498;11.960;2022-11-06T09:31:32;10.57;;;5.18;;
29728;SDS011;20055;51.498;11.960;2022-11-06T09:33:58;10.15;;;5.32;;
29728;SDS011;20055;51.498;11.960;2022-11-06T09:36:25;14.63;;;5.82;;
29728;SDS011;20055;51.498;11.960;2022-11-06T09:38:51;11.98;;;5.82;;
29728;SDS011;20055;51.498;11.960;2022-11-06T09:41:22;13.50;;;5.80;;
29728;SDS011;20055;51.498;11.960;2022-11-06T09:44:26;13.50;;;5.90;;
29728;SDS011;20055;51.498;11.960;2022-11-06T09:46:57;13.30;;;6.10;;
29728;SDS011;20055;51.498;11.960;2022-11-06T09:49:40;13.88;;;6.70;;
29728;SDS011;20055;51.498;11.960;2022-11-06T09:54:54;14.18;;;5.35;;
29728;SDS011;20055;51.498;11.960;2022-11-06T10:00:32;9.45;;;4.70;;
29728;SDS011;20055;51.498;11.960;2022-11-06T10:03:05;8.57;;;4.90;;
29728;SDS011;20055;51.498;11.960;2022-11-06T10:05:38;8.15;;;4.82;;
29728;SDS011;20055;51.498;11.960;2022-11-06T10:08:11;12.95;;;5.10;;
29728;SDS011;20055;51.498;11.960;2022-11-06T10:16:08;9.10;;;4.38;;
29728;SDS011;20055;51.498;11.960;2022-11-06T10:21:38;11.00;;;4.55;;
29728;SDS011;20055;51.498;11.960;2022-11-06T10:24:22;10.95;;;5.13;;
29728;SDS011;20055;51.498;11.960;2022-11-06T10:26:55;9.48;;;4.28;;
29728;SDS011;20055;51.498;11.960;2022-11-06T10:35:44;12.45;;;3.95;;
29728;SDS011;20055;51.498;11.960;2022-11-06T10:38:13;7.10;;;3.70;;
29728;SDS011;20055;51.498;11.960;2022-11-06T10:40:43;13.70;;;4.95;;
29728;SDS011;20055;51.498;11.960;2022-11-06T10:46:02;6.57;;;3.60;;
29728;SDS011;20055;51.498;11.960;2022-11-06T10:48:36;23.08;;;4.30;;
29728;SDS011;20055;51.498;11.960;2022-11-06T10:58:46;7.13;;;3.05;;
29728;SDS011;20055;51.498;11.960;2022-11-06T11:01:12;9.02;;;3.60;;
29728;SDS011;20055;51.498;11.960;2022-11-06T11:03:42;14.27;;;3.75;;
29728;SDS011;20055;51.498;11.960;2022-11-06T11:06:10;12.07;;;3.47;;
29728;SDS011;20055;51.498;11.960;2022-11-06T11:08:39;6.75;;;4.22;;
29728;SDS011;20055;51.498;11.960;2022-11-06T11:13:39;7.68;;;3.80;;
29728;SDS011;20055;51.498;11.960;2022-11-06T11:16:17;14.50;;;3.28;;
29728;SDS011;20055;51.498;11.960;2022-11-06T11:18:54;8.18;;;3.45;;
29728;SDS011;20055;51.498;11.960;2022-11-06T11:25:02;5.60;;;3.53;;
29728;SDS011;20055;51.498;11.960;2022-11-06T11:27:31;4.70;;;2.53;;
29728;SDS011;20055;51.498;11.960;2022-11-06T11:30:03;7.88;;;3.45;;
29728;SDS011;20055;51.498;11.960;2022-11-06T11:32:30;15.32;;;3.28;;
29728;SDS011;20055;51.498;11.960;2022-11-06T11:34:57;7.15;;;2.60;;
29728;SDS011;20055;51.498;11.960;2022-11-06T11:39:50;8.98;;;3.38;;
29728;SDS011;20055;51.498;11.960;2022-11-06T11:47:35;7.82;;;2.85;;
29728;SDS011;20055;51.498;11.960;2022-11-06T11:52:41;4.93;;;2.72;;
29728;SDS011;20055;51.498;11.960;2022-11-06T11:55:15;12.35;;;2.97;;
29728;SDS011;20055;51.498;11.960;2022-11-06T11:57:44;6.60;;;2.80;;
29728;SDS011;20055;51.498;11.960;2022-11-06T12:00:17;9.77;;;3.05;;
29728;SDS011;20055;51.498;11.960;2022-11-06T12:02:45;7.35;;;3.50;;
29728;SDS011;20055;51.498;11.960;2022-11-06T12:05:34;6.38;;;2.65;;
29728;SDS011;20055;51.498;11.960;2022-11-06T12:08:04;6.00;;;2.60;;
29728;SDS011;20055;51.498;11.960;2022-11-06T12:13:21;13.27;;;3.00;;
29728;SDS011;20055;51.498;11.960;2022-11-06T12:18:16;4.90;;;2.90;;
29728;SDS011;20055;51.498;11.960;2022-11-06T12:23:26;5.00;;;2.17;;
29728;SDS011;20055;51.498;11.960;2022-11-06T12:26:36;3.72;;;2.83;;
29728;SDS011;20055;51.498;11.960;2022-11-06T12:29:44;8.07;;;3.67;;
29728;SDS011;20055;51.498;11.960;2022-11-06T12:34:51;3.97;;;3.10;;
29728;SDS011;20055;51.498;11.960;2022-11-06T12:37:39;18.98;;;5.45;;
29728;SDS011;20055;51.498;11.960;2022-11-06T12:43:49;7.88;;;2.85;;
29728;SDS011;20055;51.498;11.960;2022-11-06T12:49:11;6.78;;;3.00;;
29728;SDS011;20055;51.498;11.960;2022-11-06T12:54:52;8.90;;;2.40;;
29728;SDS011;20055;51.498;11.960;2022-11-06T13:03:33;5.78;;;3.53;;
29728;SDS011;20055;51.498;11.960;2022-11-06T13:06:28;9.73;;;2.63;;
29728;SDS011;20055;51.498;11.960;2022-11-06T13:09:17;6.50;;;3.13;;
29728;SDS011;20055;51.498;11.960;2022-11-06T13:12:05;5.50;;;2.58;;
29728;SDS011;20055;51.498;11.960;2022-11-06T13:17:53;4.63;;;2.38;;
29728;SDS011;20055;51.498;11.960;2022-11-06T13:20:27;4.82;;;2.78;;
29728;SDS011;20055;51.498;11.960;2022-11-06T13:23:18;5.80;;;2.70;;
29728;SDS011;20055;51.498;11.960;2022-11-06T13:25:58;3.42;;;2.35;;
29728;SDS011;20055;51.498;11.960;2022-11-06T13:28:42;8.30;;;2.83;;
29728;SDS011;20055;51.498;11.960;2022-11-06T13:31:12;5.93;;;2.60;;
29728;SDS011;20055;51.498;11.960;2022-11-06T13:33:51;3.40;;;2.15;;
29728;SDS011;20055;51.498;11.960;2022-11-06T13:36:21;5.22;;;2.70;;
29728;SDS011;20055;51.498;11.960;2022-11-06T13:38:57;7.57;;;2.92;;
29728;SDS011;20055;51.498;11.960;2022-11-06T13:44:02;3.58;;;2.55;;
29728;SDS011;20055;51.498;11.960;2022-11-06T13:46:36;5.72;;;2.53;;
29728;SDS011;20055;51.498;11.960;2022-11-06T13:51:57;5.07;;;2.63;;
29728;SDS011;20055;51.498;11.960;2022-11-06T13:57:16;8.65;;;2.75;;
29728;SDS011;20055;51.498;11.960;2022-11-06T14:06:01;3.97;;;2.53;;
29728;SDS011;20055;51.498;11.960;2022-11-06T14:08:34;6.63;;;2.40;;
29728;SDS011;20055;51.498;11.960;2022-11-06T14:11:05;7.72;;;2.20;;
29728;SDS011;20055;51.498;11.960;2022-11-06T14:13:40;4.45;;;2.58;;
29728;SDS011;20055;51.498;11.960;2022-11-06T14:21:53;7.32;;;2.35;;
29728;SDS011;20055;51.498;11.960;2022-11-06T14:24:40;7.40;;;2.40;;
29728;SDS011;20055;51.498;11.960;2022-11-06T14:27:12;5.32;;;2.70;;
29728;SDS011;20055;51.498;11.960;2022-11-06T14:34:39;6.72;;;2.53;;
29728;SDS011;20055;51.498;11.960;2022-11-06T14:44:46;8.38;;;2.78;;
29728;SDS011;20055;51.498;11.960;2022-11-06T14:47:20;18.83;;;8.90;;
29728;SDS011;20055;51.498;11.960;2022-11-06T14:49:54;3.17;;;2.30;;
29728;SDS011;20055;51.498;11.960;2022-11-06T14:52:23;6.18;;;2.28;;
29728;SDS011;20055;51.498;11.960;2022-11-06T14:54:54;5.68;;;2.75;;
29728;SDS011;20055;51.498;11.960;2022-11-06T14:57:32;3.78;;;2.60;;
29728;SDS011;20055;51.498;11.960;2022-11-06T15:02:56;4.78;;;2.70;;
29728;SDS011;20055;51.498;11.960;2022-11-06T15:05:23;5.93;;;2.53;;
29728;SDS011;20055;51.498;11.960;2022-11-06T15:07:53;5.63;;;3.05;;
29728;SDS011;20055;51.498;11.960;2022-11-06T15:13:10;4.22;;;2.88;;
29728;SDS011;20055;51.498;11.960;2022-11-06T15:15:47;8.02;;;2.95;;
29728;SDS011;20055;51.498;11.960;2022-11-06T15:18:16;7.57;;;2.80;;
29728;SDS011;20055;51.498;11.960;2022-11-06T15:20:47;5.53;;;2.88;;
29728;SDS011;20055;51.498;11.960;2022-11-06T15:23:18;9.13;;;3.08;;
29728;SDS011;20055;51.498;11.960;2022-11-06T15:26:06;4.50;;;2.83;;
29728;SDS011;20055;51.498;11.960;2022-11-06T15:28:46;6.65;;;3.08;;
29728;SDS011;20055;51.498;11.960;2022-11-06T15:31:35;6.53;;;3.63;;
29728;SDS011;20055;51.498;11.960;2022-11-06T15:34:03;6.72;;;2.78;;
29728;SDS011;20055;51.498;11.960;2022-11-06T15:36:38;12.70;;;3.92;;
29728;SDS011;20055;51.498;11.960;2022-11-06T15:39:22;10.27;;;3.88;;
29728;SDS011;20055;51.498;11.960;2022-11-06T15:42:05;15.50;;;3.70;;
29728;SDS011;20055;51.498;11.960;2022-11-06T15:44:41;14.13;;;3.65;;
29728;SDS011;20055;51.498;11.960;2022-11-06T15:47:21;8.85;;;4.72;;
29728;SDS011;20055;51.498;11.960;2022-11-06T15:52:37;9.55;;;5.28;;
29728;SDS011;20055;51.498;11.960;2022-11-06T15:55:04;12.50;;;6.85;;
29728;SDS011;20055;51.498;11.960;2022-11-06T15:57:31;10.85;;;6.10;;
29728;SDS011;20055;51.498;11.960;2022-11-06T16:02:44;12.88;;;5.70;;
29728;SDS011;20055;51.498;11.960;2022-11-06T16:05:32;13.95;;;6.57;;
29728;SDS011;20055;51.498;11.960;2022-11-06T16:08:00;15.65;;;6.05;;
29728;SDS011;20055;51.498;11.960;2022-11-06T16:10:30;12.60;;;6.13;;
29728;SDS011;20055;51.498;11.960;2022-11-06T16:12:58;22.38;;;8.05;;
29728;SDS011;20055;51.498;11.960;2022-11-06T16:23:23;13.77;;;7.47;;
29728;SDS011;20055;51.498;11.960;2022-11-06T16:26:16;13.68;;;7.97;;
29728;SDS011;20055;51.498;11.960;2022-11-06T16:28:52;20.02;;;9.05;;
29728;SDS011;20055;51.498;11.960;2022-11-06T16:31:22;21.77;;;9.13;;
29728;SDS011;20055;51.498;11.960;2022-11-06T16:33:58;25.30;;;8.85;;
29728;SDS011;20055;51.498;11.960;2022-11-06T16:36:27;21.13;;;9.95;;
29728;SDS011;20055;51.498;11.960;2022-11-06T16:42:02;16.80;;;9.57;;
29728;SDS011;20055;51.498;11.960;2022-11-06T16:44:45;14.73;;;8.98;;
29728;SDS011;20055;51.498;11.960;2022-11-06T16:47:14;16.67;;;9.38;;
29728;SDS011;20055;51.498;11.960;2022-11-06T16:57:46;18.98;;;10.63;;
29728;SDS011;20055;51.498;11.960;2022-11-06T17:02:49;20.58;;;11.43;;
29728;SDS011;20055;51.498;11.960;2022-11-06T17:05:19;19.10;;;10.70;;
29728;SDS011;20055;51.498;11.960;2022-11-06T17:07:48;18.83;;;10.98;;
29728;SDS011;20055;51.498;11.960;2022-11-06T17:11:00;19.05;;;10.40;;
29728;SDS011;20055;51.498;11.960;2022-11-06T17:13:41;18.83;;;10.68;;
29728;SDS011;20055;51.498;11.960;2022-11-06T17:16:10;20.73;;;10.65;;
29728;SDS011;20055;51.498;11.960;2022-11-06T17:18:39;16.90;;;10.35;;
29728;SDS011;20055;51.498;11.960;2022-11-06T17:21:06;17.73;;;10.32;;
29728;SDS011;20055;51.498;11.960;2022-11-06T17:23:36;17.70;;;10.93;;
29728;SDS011;20055;51.498;11.960;2022-11-06T17:26:45;19.52;;;10.55;;
29728;SDS011;20055;51.498;11.960;2022-11-06T17:28:56;17.75;;;9.88;;
29728;SDS011;20055;51.498;11.960;2022-11-06T17:31:23;28.35;;;13.38;;
29728;SDS011;20055;51.498;11.960;2022-11-06T17:33:50;20.33;;;10.77;;
29728;SDS011;20055;51.498;11.960;2022-11-06T17:38:44;19.45;;;10.90;;
29728;SDS011;20055;51.498;11.960;2022-11-06T17:41:11;19.67;;;9.65;;
29728;SDS011;20055;51.498;11.960;2022-11-06T17:43:37;27.48;;;11.40;;
29728;SDS011;20055;51.498;11.960;2022-11-06T17:46:04;19.85;;;11.10;;
29728;SDS011;20055;51.498;11.960;2022-11-06T17:48:30;18.35;;;10.07;;
29728;SDS011;20055;51.498;11.960;2022-11-06T17:50:56;23.75;;;11.23;;
29728;SDS011;20055;51.498;11.960;2022-11-06T17:53:49;20.05;;;11.02;;
29728;SDS011;20055;51.498;11.960;2022-11-06T17:56:15;20.70;;;11.95;;